Time;durP1;ratioP1;P1;durP2;ratioP2;P2;SDS_P1;SDS_P2;PMS_P1;PMS_P2;Temp;Humidity;BMP_temperature;BMP_pressure;BME280_temperature;BME280_humidity;BME280_pressure;Samples;Min_cycle;Max_cycle;Signal;HPM_P1;HPM_P2
2023/12/08 00:00:15;;;;;;;3.40;3.20;;;;;;;;;;4936753;29;20346;-88
2023/12/08 00:02:52;;;;;;;5.07;3.70;;;;;;;;;;4934551;29;20195;-89
2023/12/08 00:05:23;;;;;;;5.87;3.47;;;;;;;;;;4935611;29;20210;-89
2023/12/08 00:08:07;;;;;;;7.83;2.53;;;;;;;;;;4935548;29;20217;-88
2023/12/08 00:10:35;;;;;;;5.53;2.70;;;;;;;;;;4936186;29;20676;-88
2023/12/08 00:16:03;;;;;;;3.07;2.40;;;;;;;;;;4925772;29;20218;-87
2023/12/08 00:18:44;;;;;;;4.70;3.63;;;;;;;;;;4935381;29;20235;-86
2023/12/08 00:21:20;;;;;;;3.20;2.80;;;;;;;;;;4935161;29;20732;-88
2023/12/08 00:24:01;;;;;;;2.50;2.33;;;;;;;;;;4937111;29;20310;-89
2023/12/08 00:26:35;;;;;;;3.63;2.47;;;;;;;;;;4938307;29;20251;-88
2023/12/08 00:29:07;;;;;;;4.70;2.87;;;;;;;;;;4939281;29;20705;-89
2023/12/08 00:34:46;;;;;;;7.47;3.47;;;;;;;;;;4913850;29;20211;-88
2023/12/08 00:40:08;;;;;;;10.97;3.43;;;;;;;;;;4936907;29;20645;-88
2023/12/08 00:42:39;;;;;;;8.17;4.03;;;;;;;;;;4938885;29;20302;-88
2023/12/08 00:45:11;;;;;;;11.20;6.67;;;;;;;;;;4937020;29;20207;-87
2023/12/08 00:48:04;;;;;;;10.47;4.90;;;;;;;;;;4939197;29;20204;-87
2023/12/08 00:50:39;;;;;;;11.40;6.70;;;;;;;;;;4937812;29;20203;-88
2023/12/08 00:53:10;;;;;;;18.07;9.47;;;;;;;;;;4937425;29;20229;-88
2023/12/08 00:55:46;;;;;;;16.93;9.63;;;;;;;;;;4938222;29;20187;-90
2023/12/08 00:58:20;;;;;;;14.40;7.80;;;;;;;;;;4938490;29;20279;-88
2023/12/08 01:00:50;;;;;;;10.07;5.87;;;;;;;;;;4939471;29;20222;-88
2023/12/08 01:03:21;;;;;;;12.37;7.20;;;;;;;;;;4943295;29;20720;-88
2023/12/08 01:06:15;;;;;;;12.83;6.63;;;;;;;;;;4953552;29;20242;-88
2023/12/08 01:15:06;;;;;;;5.37;3.20;;;;;;;;;;4881754;29;20288;-88
2023/12/08 01:17:36;;;;;;;7.13;3.07;;;;;;;;;;4918493;29;20196;-87
2023/12/08 01:20:05;;;;;;;6.67;4.97;;;;;;;;;;4919798;29;20646;-88
2023/12/08 01:22:36;;;;;;;7.40;3.40;;;;;;;;;;4918627;29;20200;-89
2023/12/08 01:25:04;;;;;;;9.53;3.00;;;;;;;;;;4918817;29;20678;-87
2023/12/08 01:27:36;;;;;;;7.23;3.57;;;;;;;;;;4919572;29;20318;-87
2023/12/08 01:30:20;;;;;;;8.90;4.47;;;;;;;;;;4918506;29;20239;-87
2023/12/08 01:33:01;;;;;;;;;;;;;;;;;;;;;
2023/12/08 01:35:43;;;;;;;8.63;5.57;;;;;;;;;;4940546;29;20218;-88
2023/12/08 01:38:28;;;;;;;8.23;5.43;;;;;;;;;;4935080;29;20235;-89
2023/12/08 01:40:56;;;;;;;6.57;5.90;;;;;;;;;;4929008;29;20313;-87
2023/12/08 01:43:25;;;;;;;11.23;5.67;;;;;;;;;;4951773;29;20648;-88
2023/12/08 01:46:09;;;;;;;8.57;4.80;;;;;;;;;;4958544;29;20194;-89
2023/12/08 01:51:30;;;;;;;5.03;3.77;;;;;;;;;;4912410;29;20202;-86
2023/12/08 01:54:33;;;;;;;3.93;2.27;;;;;;;;;;4954875;29;20810;-85
2023/12/08 01:57:04;;;;;;;2.70;2.23;;;;;;;;;;4952632;29;20294;-87
2023/12/08 01:59:37;;;;;;;6.03;3.77;;;;;;;;;;4955929;29;20242;-87
2023/12/08 02:02:23;;;;;;;5.77;3.93;;;;;;;;;;4957157;29;20219;-89
2023/12/08 02:04:56;;;;;;;6.10;3.13;;;;;;;;;;4956018;29;20199;-88
2023/12/08 02:07:54;;;;;;;4.30;2.57;;;;;;;;;;4954759;29;20218;-87
2023/12/08 02:10:55;;;;;;;;;;;;;;;;;;;;;
2023/12/08 02:14:03;;;;;;;5.17;3.20;;;;;;;;;;4946045;29;20202;-88
2023/12/08 02:16:44;;;;;;;3.33;2.23;;;;;;;;;;4954811;29;20242;-88
2023/12/08 02:19:17;;;;;;;1.37;1.27;;;;;;;;;;4954570;29;20293;-88
2023/12/08 02:21:53;;;;;;;6.13;2.47;;;;;;;;;;4956220;29;20198;-87
2023/12/08 02:24:47;;;;;;;6.13;3.17;;;;;;;;;;4955233;29;20198;-87
2023/12/08 02:27:35;;;;;;;4.73;2.33;;;;;;;;;;4954916;28;20334;-88
2023/12/08 02:30:32;;;;;;;;;;;;;;;;;;;;;
2023/12/08 02:35:52;;;;;;;4.67;3.27;;;;;;;;;;4942111;29;20206;-88
2023/12/08 02:38:22;;;;;;;6.33;2.90;;;;;;;;;;4955286;29;20234;-88
2023/12/08 02:40:54;;;;;;;9.83;2.80;;;;;;;;;;4955688;29;20652;-88
2023/12/08 02:43:27;;;;;;;3.60;1.73;;;;;;;;;;4954765;29;20226;-89
2023/12/08 02:45:55;;;;;;;2.57;2.37;;;;;;;;;;4955031;28;20198;-88
2023/12/08 02:48:32;;;;;;;4.73;2.53;;;;;;;;;;4955852;29;20226;-88
2023/12/08 02:51:07;;;;;;;2.60;2.40;;;;;;;;;;4954542;29;20199;-91
2023/12/08 02:53:39;;;;;;;2.83;1.53;;;;;;;;;;4955804;29;20194;-89
2023/12/08 02:56:12;;;;;;;2.47;2.27;;;;;;;;;;4961655;29;20629;-87
2023/12/08 02:58:40;;;;;;;4.63;2.90;;;;;;;;;;4964322;29;20237;-88
2023/12/08 03:01:21;;;;;;;2.80;2.17;;;;;;;;;;4968911;29;20201;-87
2023/12/08 03:03:56;;;;;;;3.50;2.87;;;;;;;;;;4970721;29;20262;-87
2023/12/08 03:06:55;;;;;;;2.87;2.63;;;;;;;;;;4963637;29;20214;-88
2023/12/08 03:09:30;;;;;;;4.53;2.97;;;;;;;;;;4955502;29;20202;-89
2023/12/08 03:12:11;;;;;;;3.07;2.03;;;;;;;;;;4955439;29;20209;-88
2023/12/08 03:14:39;;;;;;;1.93;1.47;;;;;;;;;;4955294;29;20195;-90
2023/12/08 03:17:10;;;;;;;2.30;1.17;;;;;;;;;;4935970;29;20332;-88
2023/12/08 03:19:38;;;;;;;2.63;2.40;;;;;;;;;;4935077;29;20311;-89
2023/12/08 03:22:06;;;;;;;4.07;1.70;;;;;;;;;;4935980;29;20199;-89
2023/12/08 03:24:40;;;;;;;3.93;2.13;;;;;;;;;;4936104;29;20207;-89
2023/12/08 03:27:21;;;;;;;1.83;1.83;;;;;;;;;;4935294;29;20241;-88
2023/12/08 03:29:50;;;;;;;1.97;1.83;;;;;;;;;;4937060;29;20206;-87
2023/12/08 03:32:20;;;;;;;1.50;1.40;;;;;;;;;;4935893;29;20772;-88
2023/12/08 03:34:50;;;;;;;2.40;2.23;;;;;;;;;;4935732;29;20214;-89
2023/12/08 03:37:21;;;;;;;1.53;1.43;;;;;;;;;;4937121;29;20264;-89
2023/12/08 03:39:50;;;;;;;2.77;2.57;;;;;;;;;;4936955;29;20720;-88
2023/12/08 03:42:20;;;;;;;3.23;2.20;;;;;;;;;;4944273;29;20220;-87
2023/12/08 03:45:00;;;;;;;2.50;2.40;;;;;;;;;;4941888;29;20601;-89
2023/12/08 03:47:33;;;;;;;3.43;2.80;;;;;;;;;;4936312;29;20214;-88
2023/12/08 03:50:11;;;;;;;2.60;2.07;;;;;;;;;;4936511;29;20665;-86
2023/12/08 03:52:40;;;;;;;6.70;2.53;;;;;;;;;;4937651;29;20254;-87
2023/12/08 03:55:31;;;;;;;1.50;1.33;;;;;;;;;;4938917;29;20227;-88
2023/12/08 03:58:07;;;;;;;2.07;1.30;;;;;;;;;;4938349;29;20279;-90
2023/12/08 04:00:35;;;;;;;3.47;1.47;;;;;;;;;;4940884;29;20724;-88
2023/12/08 04:03:12;;;;;;;1.50;1.40;;;;;;;;;;4940647;29;20580;-89
2023/12/08 04:05:49;;;;;;;1.83;1.73;;;;;;;;;;4939461;29;20196;-89
2023/12/08 04:08:25;;;;;;;2.60;2.50;;;;;;;;;;4941793;29;20203;-87
2023/12/08 04:10:53;;;;;;;2.00;1.80;;;;;;;;;;4940712;29;20278;-88
2023/12/08 04:13:24;;;;;;;1.73;1.57;;;;;;;;;;4941435;29;20206;-89
2023/12/08 04:21:58;;;;;;;3.57;1.90;;;;;;;;;;4917474;29;20203;-89
2023/12/08 04:24:37;;;;;;;3.50;1.93;;;;;;;;;;4938872;29;20277;-89
2023/12/08 04:27:13;;;;;;;1.63;1.53;;;;;;;;;;4938580;29;20239;-89
2023/12/08 04:30:07;;;;;;;2.30;2.20;;;;;;;;;;4941925;29;20196;-90
2023/12/08 04:32:37;;;;;;;2.37;1.47;;;;;;;;;;4941000;29;20180;-87
2023/12/08 04:35:11;;;;;;;3.17;2.60;;;;;;;;;;4940021;29;20276;-89
2023/12/08 04:37:55;;;;;;;3.53;2.70;;;;;;;;;;4942421;29;20203;-89
2023/12/08 04:40:30;;;;;;;2.33;1.80;;;;;;;;;;4939832;29;20563;-90
2023/12/08 04:43:07;;;;;;;3.40;3.13;;;;;;;;;;4938703;29;20596;-90
2023/12/08 04:45:42;;;;;;;3.20;2.93;;;;;;;;;;4939100;29;20604;-89
2023/12/08 04:50:59;;;;;;;2.60;2.40;;;;;;;;;;4938271;29;20591;-87
2023/12/08 04:53:42;;;;;;;1.93;1.83;;;;;;;;;;4946426;29;20647;-87
2023/12/08 04:56:11;;;;;;;2.70;2.33;;;;;;;;;;4954044;29;20259;-88
2023/12/08 04:58:40;;;;;;;3.73;1.37;;;;;;;;;;4946947;29;20266;-89
2023/12/08 05:01:36;;;;;;;2.27;2.07;;;;;;;;;;4939789;29;20282;-89
2023/12/08 05:04:06;;;;;;;26.77;13.30;;;;;;;;;;4938472;29;20196;-88
2023/12/08 05:06:33;;;;;;;1.73;1.53;;;;;;;;;;4939109;29;20207;-88
2023/12/08 05:09:06;;;;;;;3.27;2.10;;;;;;;;;;4938746;29;20274;-88
2023/12/08 05:11:34;;;;;;;1.93;1.73;;;;;;;;;;4938447;29;20203;-90
2023/12/08 05:14:07;;;;;;;3.47;2.57;;;;;;;;;;4938527;29;20191;-88
2023/12/08 05:16:52;;;;;;;3.13;1.40;;;;;;;;;;4937864;29;20298;-88
2023/12/08 05:19:22;;;;;;;2.60;1.80;;;;;;;;;;4938059;29;20685;-88
2023/12/08 05:21:51;;;;;;;3.97;2.63;;;;;;;;;;4938475;29;20195;-88
2023/12/08 05:24:20;;;;;;;2.77;2.57;;;;;;;;;;4938423;29;20242;-88
2023/12/08 05:26:51;;;;;;;2.60;2.17;;;;;;;;;;4938047;29;20587;-88
2023/12/08 05:29:27;;;;;;;2.87;2.30;;;;;;;;;;4939612;29;20254;-89
2023/12/08 05:32:08;;;;;;;3.17;1.73;;;;;;;;;;4939159;29;20233;-89
2023/12/08 05:34:37;;;;;;;2.90;2.67;;;;;;;;;;4938852;29;20198;-89
2023/12/08 05:37:06;;;;;;;1.70;1.60;;;;;;;;;;4939396;29;20693;-89
2023/12/08 05:39:44;;;;;;;2.43;1.60;;;;;;;;;;4936283;29;20242;-88
2023/12/08 05:42:13;;;;;;;2.27;2.07;;;;;;;;;;4938378;29;20226;-89
2023/12/08 05:44:44;;;;;;;2.33;2.13;;;;;;;;;;4938928;29;20203;-87
2023/12/08 05:47:39;;;;;;;2.63;1.23;;;;;;;;;;4940077;29;20223;-87
2023/12/08 05:50:11;;;;;;;4.80;2.67;;;;;;;;;;4938729;29;20205;-88
2023/12/08 05:52:49;;;;;;;3.43;1.87;;;;;;;;;;4938655;29;20203;-89
2023/12/08 05:55:20;;;;;;;3.33;1.53;;;;;;;;;;4938829;29;20209;-88
2023/12/08 05:58:06;;;;;;;2.10;1.67;;;;;;;;;;4941635;29;20282;-87
2023/12/08 06:00:40;;;;;;;4.43;2.07;;;;;;;;;;4938025;29;20447;-88
2023/12/08 06:03:19;;;;;;;4.07;3.17;;;;;;;;;;4938492;29;20634;-87
2023/12/08 06:06:02;;;;;;;5.17;2.80;;;;;;;;;;4938636;29;20669;-88
2023/12/08 06:08:35;;;;;;;3.13;2.67;;;;;;;;;;4939049;29;20238;-89
2023/12/08 06:11:11;;;;;;;2.93;2.73;;;;;;;;;;4934335;29;20231;-88
2023/12/08 06:13:53;;;;;;;4.10;2.27;;;;;;;;;;4939003;29;20225;-90
2023/12/08 06:16:25;;;;;;;2.83;2.40;;;;;;;;;;4938403;29;20299;-89
2023/12/08 06:18:59;;;;;;;3.97;1.97;;;;;;;;;;4937988;29;20207;-89
2023/12/08 06:21:32;;;;;;;2.27;2.17;;;;;;;;;;4937154;29;20229;-89
2023/12/08 06:24:29;;;;;;;2.67;2.47;;;;;;;;;;4937998;29;20593;-87
2023/12/08 06:27:08;;;;;;;1.97;1.80;;;;;;;;;;4938313;29;20250;-88
2023/12/08 06:29:42;;;;;;;4.50;2.33;;;;;;;;;;4953007;29;20179;-90
2023/12/08 06:32:28;;;;;;;2.00;1.83;;;;;;;;;;4950107;29;20204;-89
2023/12/08 06:38:13;;;;;;;2.70;2.47;;;;;;;;;;4955453;29;20190;-88
2023/12/08 06:40:53;;;;;;;2.50;2.30;;;;;;;;;;4956704;29;20345;-87
2023/12/08 06:43:26;;;;;;;7.70;2.77;;;;;;;;;;4952470;29;20215;-88
2023/12/08 06:46:05;;;;;;;1.77;1.67;;;;;;;;;;4950356;29;20213;-90
2023/12/08 06:48:36;;;;;;;4.93;2.27;;;;;;;;;;4947117;29;20210;-89
2023/12/08 07:06:36;;;;;;;2.20;2.00;;;;;;;;;;4941382;29;20203;-88
2023/12/08 07:09:21;;;;;;;5.50;3.20;;;;;;;;;;4936506;29;20200;-87
2023/12/08 07:24:21;;;;;;;;;;;;;;;;;;;;;
2023/12/08 07:27:08;;;;;;;2.77;2.37;;;;;;;;;;4959396;28;20238;-87
2023/12/08 07:39:05;;;;;;;;;;;;;;;;;;;;;
2023/12/08 07:45:25;;;;;;;10.73;5.13;;;;;;;;;;4936466;29;20247;-88
2023/12/08 07:57:17;;;;;;;;;;;;;;;;;;;;;
2023/12/08 08:18:41;;;;;;;4.10;3.63;;;;;;;;;;4936328;29;20238;-90
2023/12/08 08:21:40;;;;;;;9.63;4.47;;;;;;;;;;4928980;29;20630;-90
2023/12/08 08:27:47;;;;;;;8.33;3.90;;;;;;;;;;5002026;28;20236;-89
2023/12/08 08:30:31;;;;;;;2.07;1.87;;;;;;;;;;5012070;28;20250;-87
2023/12/08 08:36:45;;;;;;;2.77;2.53;;;;;;;;;;5003784;28;20218;-88
2023/12/08 08:50:55;;;;;;;2.00;1.23;;;;;;;;;;5000954;23;20241;-89
2023/12/08 08:53:27;;;;;;;2.63;2.43;;;;;;;;;;4998588;28;20236;-87
2023/12/08 08:55:56;;;;;;;4.20;2.80;;;;;;;;;;4997850;28;20225;-89
2023/12/08 08:58:25;;;;;;;1.70;1.50;;;;;;;;;;4996954;28;20429;-89
2023/12/08 09:00:56;;;;;;;2.53;2.17;;;;;;;;;;4994617;28;20267;-89
2023/12/08 09:03:24;;;;;;;1.90;1.73;;;;;;;;;;4999212;28;20221;-87
2023/12/08 09:06:02;;;;;;;2.77;2.13;;;;;;;;;;5002837;28;20304;-86
2023/12/08 09:08:47;;;;;;;2.70;2.50;;;;;;;;;;4997641;28;20221;-87
2023/12/08 09:11:35;;;;;;;4.07;2.60;;;;;;;;;;4999333;28;20220;-87
2023/12/08 09:14:25;;;;;;;2.13;2.03;;;;;;;;;;4996682;28;20225;-88
2023/12/08 09:17:00;;;;;;;2.77;2.03;;;;;;;;;;4996406;28;20228;-86
2023/12/08 09:19:35;;;;;;;3.37;3.07;;;;;;;;;;4993000;28;20233;-86
2023/12/08 09:22:10;;;;;;;4.77;3.37;;;;;;;;;;4995277;28;20521;-87
2023/12/08 09:24:47;;;;;;;4.00;3.60;;;;;;;;;;4993251;28;20241;-88
2023/12/08 09:30:28;;;;;;;2.57;2.37;;;;;;;;;;4988720;28;20336;-87
2023/12/08 09:33:09;;;;;;;;;;;;;;;;;;;;;
2023/12/08 09:38:48;;;;;;;3.63;2.93;;;;;;;;;;4983164;28;20222;-89
2023/12/08 09:41:46;;;;;;;2.83;2.63;;;;;;;;;;4974931;28;20237;-87
2023/12/08 09:44:44;;;;;;;;;;;;;;;;;;;;;
2023/12/08 09:47:36;;;;;;;3.10;2.80;;;;;;;;;;4976280;28;20214;-89
2023/12/08 09:56:13;;;;;;;2.90;2.70;;;;;;;;;;4953032;28;20236;-87
2023/12/08 09:58:41;;;;;;;6.10;2.77;;;;;;;;;;4975367;28;20226;-88
2023/12/08 10:01:17;;;;;;;2.77;2.40;;;;;;;;;;4974152;28;20741;-88
2023/12/08 10:04:13;;;;;;;;;;;;;;;;;;;;;
2023/12/08 10:06:54;;;;;;;3.60;3.00;;;;;;;;;;4974593;28;20245;-88
2023/12/08 10:09:51;;;;;;;3.70;2.40;;;;;;;;;;4975746;28;20233;-87
2023/12/08 10:12:21;;;;;;;3.80;3.00;;;;;;;;;;4972683;28;20249;-89
2023/12/08 10:15:20;;;;;;;3.63;2.57;;;;;;;;;;4974648;28;20226;-88
2023/12/08 10:18:05;;;;;;;5.37;2.73;;;;;;;;;;4973448;28;20628;-89
2023/12/08 10:20:34;;;;;;;7.27;4.60;;;;;;;;;;4971756;28;20230;-88
2023/12/08 10:23:25;;;;;;;8.00;5.20;;;;;;;;;;4975207;28;20230;-87
2023/12/08 10:26:02;;;;;;;2.93;2.23;;;;;;;;;;4977390;28;20252;-89
2023/12/08 10:28:37;;;;;;;2.87;2.67;;;;;;;;;;4977906;28;20625;-88
2023/12/08 10:31:12;;;;;;;3.37;2.27;;;;;;;;;;4976376;28;20206;-87
2023/12/08 10:33:55;;;;;;;2.37;2.23;;;;;;;;;;4976463;28;20252;-87
2023/12/08 10:36:27;;;;;;;4.30;3.03;;;;;;;;;;4981532;28;20258;-88
2023/12/08 10:38:57;;;;;;;4.43;2.97;;;;;;;;;;4994542;28;20214;-89
2023/12/08 10:41:42;;;;;;;5.13;3.33;;;;;;;;;;4996133;28;20209;-86
2023/12/08 10:44:17;;;;;;;3.57;2.47;;;;;;;;;;4987874;28;20204;-89
2023/12/08 10:46:53;;;;;;;2.83;2.63;;;;;;;;;;4995781;28;20193;-88
2023/12/08 10:49:25;;;;;;;7.17;3.93;;;;;;;;;;4994622;28;20251;-89
2023/12/08 10:55:15;;;;;;;2.93;2.20;;;;;;;;;;4977586;28;20308;-87
2023/12/08 10:57:49;;;;;;;3.57;2.60;;;;;;;;;;4979447;28;20205;-89
2023/12/08 11:00:22;;;;;;;3.47;2.43;;;;;;;;;;4978050;28;20221;-87
2023/12/08 11:03:13;;;;;;;2.40;2.23;;;;;;;;;;4976380;28;20248;-88
2023/12/08 11:05:56;;;;;;;2.70;2.37;;;;;;;;;;4975381;28;20256;-88
2023/12/08 11:08:38;;;;;;;3.10;2.80;;;;;;;;;;4975381;28;20663;-88
2023/12/08 11:11:27;;;;;;;3.27;2.63;;;;;;;;;;4976395;28;20683;-88
2023/12/08 11:14:02;;;;;;;3.00;2.70;;;;;;;;;;4979480;28;20265;-87
2023/12/08 11:16:35;;;;;;;3.07;2.80;;;;;;;;;;4982761;28;20212;-88
2023/12/08 11:19:07;;;;;;;2.77;2.47;;;;;;;;;;4983617;28;20202;-88
2023/12/08 11:21:41;;;;;;;4.23;3.83;;;;;;;;;;4976815;28;20238;-87
2023/12/08 11:24:17;;;;;;;3.90;3.03;;;;;;;;;;4975376;28;20212;-89
2023/12/08 11:26:51;;;;;;;4.90;3.97;;;;;;;;;;4974926;28;20288;-89
2023/12/08 11:29:40;;;;;;;4.43;2.80;;;;;;;;;;4975445;28;20208;-88
2023/12/08 11:32:30;;;;;;;3.97;2.27;;;;;;;;;;4974304;28;20605;-88
2023/12/08 11:35:04;;;;;;;3.77;3.30;;;;;;;;;;4973367;28;20228;-88
2023/12/08 11:37:38;;;;;;;5.93;4.60;;;;;;;;;;4974875;28;20285;-88
2023/12/08 11:40:22;;;;;;;6.57;3.27;;;;;;;;;;4974639;28;20202;-88
2023/12/08 11:43:01;;;;;;;3.50;3.10;;;;;;;;;;4974914;28;20232;-88
2023/12/08 11:45:39;;;;;;;8.23;5.40;;;;;;;;;;4973897;28;20224;-87
2023/12/08 11:48:12;;;;;;;10.90;3.87;;;;;;;;;;4974836;28;20201;-88
2023/12/08 11:50:41;;;;;;;11.90;3.97;;;;;;;;;;4974261;28;20285;-87
2023/12/08 11:53:23;;;;;;;7.63;3.60;;;;;;;;;;4975031;28;20209;-87
2023/12/08 11:55:59;;;;;;;3.40;3.10;;;;;;;;;;4978732;28;20227;-87
2023/12/08 11:58:51;;;;;;;7.00;4.03;;;;;;;;;;4981163;28;20190;-88
2023/12/08 12:01:22;;;;;;;3.40;3.07;;;;;;;;;;4980076;28;20268;-89
2023/12/08 12:03:54;;;;;;;5.97;3.93;;;;;;;;;;4982542;28;20204;-88
2023/12/08 12:06:27;;;;;;;3.90;2.87;;;;;;;;;;4981754;28;20205;-87
2023/12/08 12:08:57;;;;;;;4.60;3.17;;;;;;;;;;4984830;28;20218;-86
2023/12/08 12:11:35;;;;;;;4.43;2.60;;;;;;;;;;4988962;28;20237;-87
2023/12/08 12:14:24;;;;;;;4.53;3.40;;;;;;;;;;4983466;28;20202;-88
2023/12/08 12:17:04;;;;;;;7.77;4.27;;;;;;;;;;4977610;28;20198;-88
2023/12/08 12:19:45;;;;;;;3.60;2.93;;;;;;;;;;4978150;28;20302;-86
2023/12/08 12:22:29;;;;;;;7.40;3.33;;;;;;;;;;4980034;28;20575;-86
2023/12/08 12:25:07;;;;;;;4.67;3.50;;;;;;;;;;4979643;28;20206;-88
2023/12/08 12:27:54;;;;;;;4.73;4.33;;;;;;;;;;4982894;28;20205;-88
2023/12/08 12:33:33;;;;;;;7.53;3.70;;;;;;;;;;4979545;28;20241;-86
2023/12/08 12:36:04;;;;;;;3.57;3.07;;;;;;;;;;4991180;28;20205;-87
2023/12/08 12:38:46;;;;;;;4.43;3.37;;;;;;;;;;4995759;28;20225;-86
2023/12/08 12:41:23;;;;;;;5.37;3.40;;;;;;;;;;4989247;28;20217;-88
2023/12/08 12:44:29;;;;;;;4.87;3.43;;;;;;;;;;4988437;28;20213;-87
2023/12/08 12:47:02;;;;;;;5.90;4.70;;;;;;;;;;4986084;28;20205;-84
2023/12/08 12:49:39;;;;;;;9.10;4.70;;;;;;;;;;4990322;28;20688;-87
2023/12/08 12:55:36;;;;;;;9.10;5.50;;;;;;;;;;4981497;28;20198;-88
2023/12/08 12:58:14;;;;;;;6.57;5.00;;;;;;;;;;4984355;28;20208;-88
2023/12/08 13:00:42;;;;;;;5.87;5.23;;;;;;;;;;4987872;28;20190;-87
2023/12/08 13:03:20;;;;;;;9.20;5.40;;;;;;;;;;4985525;28;20236;-86
2023/12/08 13:05:54;;;;;;;6.70;4.63;;;;;;;;;;4984635;28;20210;-88
2023/12/08 13:08:38;;;;;;;;;;;;;;;;;;;;;
2023/12/08 13:11:24;;;;;;;9.53;6.20;;;;;;;;;;4985970;28;20186;-87
2023/12/08 13:20:05;;;;;;;9.90;5.10;;;;;;;;;;4941140;28;20229;-87
2023/12/08 13:22:50;;;;;;;9.63;5.87;;;;;;;;;;4992207;28;20256;-85
2023/12/08 13:25:41;;;;;;;;;;;;;;;;;;;;;
2023/12/08 13:28:22;;;;;;;9.43;6.57;;;;;;;;;;4992873;28;20391;-87
2023/12/08 13:33:56;;;;;;;10.37;5.47;;;;;;;;;;4996759;28;20625;-87
2023/12/08 13:36:28;;;;;;;9.80;5.43;;;;;;;;;;4984788;28;20210;-88
2023/12/08 13:39:12;;;;;;;;;;;;;;;;;;;;;
2023/12/08 13:41:48;;;;;;;9.80;5.63;;;;;;;;;;4985432;28;20221;-85
2023/12/08 13:44:22;;;;;;;8.87;5.60;;;;;;;;;;4983017;28;20217;-87
2023/12/08 13:46:56;;;;;;;10.63;6.93;;;;;;;;;;4982790;28;20678;-88
2023/12/08 13:49:47;;;;;;;11.57;7.17;;;;;;;;;;4985581;28;20297;-87
2023/12/08 13:52:18;;;;;;;11.00;7.07;;;;;;;;;;4990703;28;20217;-86
2023/12/08 13:55:19;;;;;;;12.80;6.33;;;;;;;;;;4991826;28;20218;-87
2023/12/08 14:07:13;;;;;;;13.33;5.93;;;;;;;;;;5020048;23;20256;-88
2023/12/08 14:15:49;;;;;;;;;;;;;;;;;;;;;
2023/12/08 14:27:35;;;;;;;;;;;;;;;;;;;;;
2023/12/08 14:30:04;;;;;;;11.53;5.07;;;;;;;;;;4982562;28;20197;-88
2023/12/08 14:32:49;;;;;;;8.00;5.60;;;;;;;;;;4980490;28;20268;-88
2023/12/08 14:35:42;;;;;;;11.20;5.50;;;;;;;;;;4980122;28;20204;-88
2023/12/08 14:38:24;;;;;;;10.47;6.07;;;;;;;;;;4977082;28;20248;-87
2023/12/08 14:40:55;;;;;;;9.57;5.70;;;;;;;;;;4978867;28;20735;-88
2023/12/08 14:46:35;;;;;;;;;;;;;;;;;;;;;
2023/12/08 14:49:08;;;;;;;11.73;5.00;;;;;;;;;;4979967;28;20205;-88
2023/12/08 14:51:37;;;;;;;8.50;5.03;;;;;;;;;;4982214;28;20209;-88
2023/12/08 14:54:16;;;;;;;;;;;;;;;;;;;;;
2023/12/08 14:56:44;;;;;;;10.27;5.23;;;;;;;;;;4979491;28;20665;-87
2023/12/08 14:59:19;;;;;;;7.67;4.67;;;;;;;;;;4978928;28;20205;-88
2023/12/08 15:01:53;;;;;;;8.83;4.87;;;;;;;;;;4978207;28;20251;-89
2023/12/08 15:04:22;;;;;;;8.03;5.00;;;;;;;;;;4978953;28;20190;-88
2023/12/08 15:06:52;;;;;;;9.43;5.57;;;;;;;;;;4978616;28;20221;-87
2023/12/08 15:09:21;;;;;;;10.97;6.87;;;;;;;;;;4980038;28;20250;-86
2023/12/08 15:11:53;;;;;;;11.10;6.63;;;;;;;;;;4982317;28;20213;-88
2023/12/08 15:14:26;;;;;;;21.73;10.23;;;;;;;;;;4985746;28;20252;-87
2023/12/08 15:16:56;;;;;;;25.57;12.70;;;;;;;;;;4987140;28;20285;-88
2023/12/08 15:19:24;;;;;;;23.60;10.77;;;;;;;;;;4983741;28;20225;-87
2023/12/08 15:21:59;;;;;;;20.00;11.33;;;;;;;;;;4982332;28;20249;-89
2023/12/08 15:27:15;;;;;;;20.17;10.23;;;;;;;;;;5173201;23;20244;-86
2023/12/08 15:35:54;;;;;;;15.57;8.67;;;;;;;;;;5008602;28;20300;-89
2023/12/08 15:38:23;;;;;;;10.40;6.70;;;;;;;;;;4996300;28;20311;-87
2023/12/08 15:41:04;;;;;;;8.50;6.10;;;;;;;;;;4990805;28;20240;-86
2023/12/08 15:43:32;;;;;;;16.03;7.77;;;;;;;;;;4977989;28;20726;-88
2023/12/08 15:46:07;;;;;;;12.77;7.47;;;;;;;;;;4975544;28;20190;-87
2023/12/08 15:48:36;;;;;;;13.60;7.70;;;;;;;;;;4975053;28;20213;-88
2023/12/08 15:51:08;;;;;;;13.67;7.57;;;;;;;;;;4976222;28;20194;-87
2023/12/08 15:56:48;;;;;;;15.77;7.97;;;;;;;;;;5122310;27;20591;-88
2023/12/08 15:59:28;;;;;;;10.57;7.37;;;;;;;;;;5202641;22;20306;-88
2023/12/08 16:01:59;;;;;;;9.10;6.93;;;;;;;;;;5155865;27;20230;-88
2023/12/08 16:04:27;;;;;;;13.60;7.10;;;;;;;;;;5143834;27;20196;-88
2023/12/08 16:07:00;;;;;;;22.00;9.40;;;;;;;;;;5135781;28;20196;-88
2023/12/08 16:09:28;;;;;;;14.90;8.97;;;;;;;;;;5136837;28;20299;-88
2023/12/08 16:11:58;;;;;;;8.30;5.73;;;;;;;;;;5136262;28;20223;-87
2023/12/08 16:14:37;;;;;;;11.83;7.00;;;;;;;;;;5135233;28;20326;-87
2023/12/08 16:17:07;;;;;;;10.33;6.10;;;;;;;;;;5134999;28;20193;-87
2023/12/08 16:19:35;;;;;;;11.03;6.50;;;;;;;;;;5143263;28;20192;-87
2023/12/08 16:22:05;;;;;;;17.27;6.50;;;;;;;;;;5149984;27;20260;-87
2023/12/08 16:24:41;;;;;;;9.27;5.43;;;;;;;;;;5139341;27;20224;-87
2023/12/08 16:30:40;;;;;;;10.80;5.60;;;;;;;;;;5134097;28;20228;-91
2023/12/08 16:33:27;;;;;;;16.40;5.90;;;;;;;;;;5113094;28;20236;-89
2023/12/08 16:36:03;;;;;;;8.47;5.67;;;;;;;;;;5134027;28;20258;-89
2023/12/08 16:38:38;;;;;;;5.87;5.17;;;;;;;;;;5143415;28;20220;-89
2023/12/08 16:41:16;;;;;;;5.93;4.57;;;;;;;;;;5148999;28;20220;-88
2023/12/08 16:49:56;;;;;;;8.27;5.07;;;;;;;;;;5130092;28;20232;-89
2023/12/08 16:52:55;;;;;;;;;;;;;;;;;;;;;
2023/12/08 16:55:55;;;;;;;5.13;4.20;;;;;;;;;;5143169;28;20232;-88
2023/12/08 17:01:41;;;;;;;5.27;3.83;;;;;;;;;;5149274;27;20276;-88
2023/12/08 17:04:46;;;;;;;7.03;3.63;;;;;;;;;;5149239;27;20208;-86
2023/12/08 17:07:47;;;;;;;;;;;;;;;;;;;;;
2023/12/08 17:10:32;;;;;;;9.10;4.97;;;;;;;;;;5039626;28;20231;-87
2023/12/08 17:19:17;;;;;;;7.83;3.87;;;;;;;;;;5110670;28;20225;-89
2023/12/08 17:22:13;;;;;;;11.83;6.13;;;;;;;;;;5120032;28;20726;-89
2023/12/08 17:24:56;;;;;;;5.50;4.47;;;;;;;;;;5121557;28;20223;-88
2023/12/08 17:27:41;;;;;;;8.03;4.93;;;;;;;;;;5122258;28;20225;-88
2023/12/08 17:30:13;;;;;;;7.50;4.43;;;;;;;;;;5123991;28;20221;-87
2023/12/08 17:38:41;;;;;;;8.77;5.23;;;;;;;;;;5129627;28;20229;-87
2023/12/08 17:42:00;;;;;;;;;;;;;;;;;;;;;
2023/12/08 17:47:28;;;;;;;12.97;5.13;;;;;;;;;;5123120;28;20251;-88
2023/12/08 17:50:15;;;;;;;8.40;4.73;;;;;;;;;;5130178;27;20227;-88
2023/12/08 18:12:07;;;;;;;7.83;4.23;;;;;;;;;;5127400;27;20229;-87
2023/12/08 18:15:03;;;;;;;7.70;5.30;;;;;;;;;;5104812;27;20735;-87
2023/12/08 18:17:59;;;;;;;6.43;4.40;;;;;;;;;;5070985;28;20235;-86
2023/12/08 18:23:48;;;;;;;8.20;5.33;;;;;;;;;;4965298;26;20255;-86
2023/12/08 18:26:33;;;;;;;4.67;4.20;;;;;;;;;;5018842;28;20237;-87
2023/12/08 18:29:11;;;;;;;10.53;5.00;;;;;;;;;;5022243;28;20223;-89
2023/12/08 18:31:45;;;;;;;4.40;4.00;;;;;;;;;;5086116;23;20225;-90
2023/12/08 18:37:10;;;;;;;10.57;5.00;;;;;;;;;;4443485;26;20233;-86
2023/12/08 18:40:09;;;;;;;12.07;6.30;;;;;;;;;;5038275;28;20215;-86
2023/12/08 18:43:05;;;;;;;12.67;5.87;;;;;;;;;;5032994;28;20318;-88
2023/12/08 18:45:34;;;;;;;9.90;5.83;;;;;;;;;;5023154;28;20236;-89
2023/12/08 18:48:07;;;;;;;7.90;5.23;;;;;;;;;;5016557;28;20290;-86
2023/12/08 18:50:41;;;;;;;7.60;5.83;;;;;;;;;;5043092;28;20247;-89
2023/12/08 18:56:28;;;;;;;8.60;4.73;;;;;;;;;;5064186;28;20231;-86
2023/12/08 19:02:37;;;;;;;;;;;;;;;;;;;;;
2023/12/08 19:14:37;;;;;;;6.43;4.20;;;;;;;;;;4833909;29;20229;-87
2023/12/08 19:26:46;;;;;;;10.33;6.07;;;;;;;;;;4976232;28;20233;-87
2023/12/08 19:29:18;;;;;;;11.40;4.00;;;;;;;;;;5231001;22;20246;-87
2023/12/08 19:35:06;;;;;;;;;;;;;;;;;;;;;
2023/12/08 19:37:53;;;;;;;12.20;5.20;;;;;;;;;;5333334;22;20225;-88
2023/12/08 19:59:13;;;;;;;12.63;9.00;;;;;;;;;;5042911;28;20237;-89
2023/12/08 20:10:55;;;;;;;20.10;10.17;;;;;;;;;;4980337;28;20237;-89
2023/12/08 20:13:29;;;;;;;31.57;12.90;;;;;;;;;;5049104;28;20291;-89
2023/12/08 20:16:18;;;;;;;31.33;11.73;;;;;;;;;;5063172;28;20298;-89
2023/12/08 20:19:05;;;;;;;28.37;9.90;;;;;;;;;;5036578;28;20212;-89
2023/12/08 21:58:41;;;;;;;13.07;5.50;;;;;;;;;;5002575;28;20225;-88
2023/12/08 22:27:44;;;;;;;14.40;7.97;;;;;;;;;;5090012;27;20555;-88
2023/12/08 22:30:17;;;;;;;15.23;9.07;;;;;;;;;;5074129;28;20644;-88
2023/12/08 22:32:52;;;;;;;22.67;8.03;;;;;;;;;;5080263;28;20245;-85
2023/12/08 22:35:33;;;;;;;12.67;7.67;;;;;;;;;;5076318;28;20220;-89
2023/12/08 22:38:29;;;;;;;;;;;;;;;;;;;;;
2023/12/08 22:41:10;;;;;;;17.93;6.90;;;;;;;;;;5054967;28;20227;-88
2023/12/08 22:46:51;;;;;;;15.03;6.70;;;;;;;;;;5049523;28;20338;-87
2023/12/08 22:50:00;;;;;;;;;;;;;;;;;;;;;
2023/12/08 22:55:21;;;;;;;18.33;8.83;;;;;;;;;;5052435;28;20313;-88
2023/12/08 23:01:19;;;;;;;13.13;7.87;;;;;;;;;;5061685;28;20773;-87
2023/12/08 23:10:13;;;;;;;22.77;10.07;;;;;;;;;;4974314;28;20241;-87
2023/12/08 23:13:06;;;;;;;17.27;6.70;;;;;;;;;;4895445;28;20280;-89
2023/12/08 23:15:36;;;;;;;22.97;8.83;;;;;;;;;;4969413;28;20332;-88
2023/12/08 23:20:57;;;;;;;9.80;6.30;;;;;;;;;;4971067;28;20218;-89
2023/12/08 23:23:54;;;;;;;12.73;6.77;;;;;;;;;;4964898;28;20230;-88
2023/12/08 23:26:29;;;;;;;8.80;6.70;;;;;;;;;;4974492;28;20312;-88
2023/12/08 23:29:28;;;;;;;;;;;;;;;;;;;;;